createdAt,value
2019-03-15T00:01:44.015Z,18.71
2019-03-15T00:04:11.368Z,18.71
2019-03-15T00:06:38.839Z,18.71
2019-03-15T00:09:09.137Z,18.70
2019-03-15T00:11:36.400Z,18.69
2019-03-15T00:14:04.671Z,18.64
2019-03-15T00:16:32.103Z,18.64
2019-03-15T00:18:59.371Z,18.65
2019-03-15T00:21:26.572Z,18.67
2019-03-15T00:23:53.779Z,18.64
2019-03-15T00:26:21.249Z,18.64
2019-03-15T00:28:51.184Z,18.69
2019-03-15T00:31:19.231Z,18.69
2019-03-15T00:33:46.664Z,18.66
2019-03-15T00:36:14.155Z,18.66
2019-03-15T00:38:41.459Z,18.70
2019-03-15T00:41:08.790Z,18.70
2019-03-15T00:43:36.055Z,18.69
2019-03-15T00:46:03.533Z,18.67
2019-03-15T00:48:30.944Z,18.67
2019-03-15T00:50:58.344Z,18.69
2019-03-15T00:53:25.614Z,18.66
2019-03-15T00:55:52.823Z,18.67
2019-03-15T00:58:20.056Z,18.69
2019-03-15T01:00:47.290Z,18.69
2019-03-15T01:03:14.491Z,18.70
2019-03-15T01:05:42.061Z,18.71
2019-03-15T01:08:09.254Z,18.71
2019-03-15T01:10:36.495Z,18.74
2019-03-15T01:13:03.703Z,18.73
2019-03-15T01:15:30.959Z,18.76
2019-03-15T01:17:58.147Z,18.76
2019-03-15T01:20:25.475Z,18.76
2019-03-15T01:22:52.721Z,18.72
2019-03-15T01:25:19.973Z,18.74
2019-03-15T01:27:47.274Z,18.77
2019-03-15T01:30:14.303Z,18.74
2019-03-15T01:32:41.626Z,18.70
2019-03-15T01:35:08.950Z,18.70
2019-03-15T01:37:36.167Z,18.72
2019-03-15T01:40:03.643Z,18.72
2019-03-15T01:42:30.806Z,18.75
2019-03-15T01:44:58.022Z,18.71
2019-03-15T01:47:25.207Z,18.72
2019-03-15T01:49:52.551Z,18.71
2019-03-15T01:52:19.740Z,18.69
2019-03-15T01:54:46.927Z,18.69
2019-03-15T01:57:14.211Z,18.67
2019-03-15T01:59:41.445Z,18.66
2019-03-15T02:02:08.699Z,18.66
2019-03-15T02:04:35.927Z,18.67
2019-03-15T02:07:03.103Z,18.67
2019-03-15T02:09:30.290Z,18.67
2019-03-15T02:11:57.648Z,18.64
2019-03-15T02:14:24.827Z,18.67
2019-03-15T02:16:52.057Z,18.68
2019-03-15T02:19:19.307Z,18.68
2019-03-15T02:21:46.521Z,18.65
2019-03-15T02:24:13.754Z,18.66
2019-03-15T02:26:40.973Z,18.71
2019-03-15T02:29:08.178Z,18.71
2019-03-15T02:31:35.466Z,18.73
2019-03-15T02:34:02.705Z,18.74
2019-03-15T02:36:29.966Z,18.71
2019-03-15T02:38:57.252Z,18.70
2019-03-15T02:41:24.516Z,18.71
2019-03-15T02:43:51.847Z,18.72
2019-03-15T02:46:19.190Z,18.68
2019-03-15T02:48:46.366Z,18.73
2019-03-15T02:51:13.590Z,18.72
2019-03-15T02:53:40.823Z,18.73
2019-03-15T02:56:08.190Z,18.70
2019-03-15T02:58:35.409Z,18.71
2019-03-15T03:01:02.637Z,18.76
2019-03-15T03:03:29.849Z,18.77
2019-03-15T03:05:57.093Z,18.76
2019-03-15T03:08:24.347Z,18.77
2019-03-15T03:10:51.857Z,18.74
2019-03-15T03:13:19.167Z,18.72
2019-03-15T03:15:46.418Z,18.74
2019-03-15T03:18:13.644Z,18.74
2019-03-15T03:20:40.809Z,18.74
2019-03-15T03:23:08.148Z,18.79
2019-03-15T03:25:35.391Z,18.76
2019-03-15T03:28:02.651Z,18.74
2019-03-15T03:30:29.912Z,18.76
2019-03-15T03:32:57.173Z,18.76
2019-03-15T03:35:24.397Z,18.76
2019-03-15T03:37:51.596Z,18.78
2019-03-15T03:40:20.589Z,18.80
2019-03-15T03:42:47.983Z,18.81
2019-03-15T03:45:15.187Z,18.86
2019-03-15T03:47:43.404Z,18.87
2019-03-15T03:50:10.829Z,18.89
2019-03-15T03:52:41.485Z,18.89
2019-03-15T03:55:07.169Z,18.89
2019-03-15T03:57:34.409Z,18.87
2019-03-15T04:00:01.587Z,18.85
2019-03-15T04:02:28.971Z,18.85
2019-03-15T04:04:56.305Z,18.83
2019-03-15T04:07:25.248Z,18.85
2019-03-15T04:09:52.782Z,18.85
2019-03-15T04:12:20.213Z,18.85
2019-03-15T04:14:47.448Z,18.83
2019-03-15T04:17:19.883Z,18.85
2019-03-15T04:19:47.530Z,18.87
2019-03-15T04:22:14.806Z,18.88
2019-03-15T04:24:42.098Z,18.89
2019-03-15T04:27:09.317Z,18.91
2019-03-15T04:29:36.673Z,18.92
2019-03-15T04:32:03.975Z,18.95
2019-03-15T04:34:31.297Z,18.97
2019-03-15T04:36:58.527Z,18.94
2019-03-15T04:39:25.825Z,18.91
2019-03-15T04:41:53.075Z,18.94
2019-03-15T04:44:22.278Z,18.93
2019-03-15T04:46:49.591Z,18.92
2019-03-15T04:49:16.844Z,18.93
2019-03-15T04:51:44.338Z,18.91
2019-03-15T04:54:11.649Z,18.91
2019-03-15T04:56:38.907Z,18.93
2019-03-15T04:59:06.295Z,18.93
2019-03-15T05:01:33.560Z,18.92
2019-03-15T05:04:00.807Z,18.90
2019-03-15T05:06:27.981Z,18.90
2019-03-15T05:08:55.321Z,18.89
2019-03-15T05:11:22.500Z,18.86
2019-03-15T05:13:49.678Z,18.87
2019-03-15T05:16:17.042Z,18.88
2019-03-15T05:18:44.258Z,18.86
2019-03-15T05:21:11.438Z,18.86
2019-03-15T05:23:38.664Z,18.85
2019-03-15T05:26:05.929Z,18.88
2019-03-15T05:28:33.197Z,18.90
2019-03-15T05:31:00.430Z,18.94
2019-03-15T05:33:31.162Z,18.95
2019-03-15T05:35:58.835Z,18.98
2019-03-15T05:38:26.161Z,18.95
2019-03-15T05:40:53.489Z,18.96
2019-03-15T05:43:20.690Z,18.98
2019-03-15T05:45:48.044Z,18.96
2019-03-15T05:48:15.217Z,18.97
2019-03-15T05:50:42.409Z,18.98
2019-03-15T05:53:09.606Z,18.99
2019-03-15T05:55:36.805Z,19.01
2019-03-15T05:58:04.056Z,19.03
2019-03-15T06:00:31.221Z,19.03
2019-03-15T06:02:58.596Z,19.04
2019-03-15T06:05:25.795Z,19.03
2019-03-15T06:07:52.952Z,18.97
2019-03-15T06:10:20.195Z,18.89
2019-03-15T06:12:47.388Z,18.85
2019-03-15T06:15:14.731Z,18.83
2019-03-15T06:17:42.065Z,18.85
2019-03-15T06:20:09.389Z,18.87
2019-03-15T06:22:37.916Z,18.91
2019-03-15T06:25:05.228Z,18.95
2019-03-15T06:27:32.399Z,18.99
2019-03-15T06:29:59.613Z,19.01
2019-03-15T06:32:26.837Z,19.02
2019-03-15T06:34:54.005Z,19.02
2019-03-15T06:37:21.233Z,19.06
2019-03-15T06:39:48.491Z,19.06
2019-03-15T06:42:15.686Z,19.09
2019-03-15T06:44:42.889Z,19.11
2019-03-15T06:47:10.090Z,19.14
2019-03-15T06:49:37.306Z,19.19
2019-03-15T06:52:04.521Z,19.23
2019-03-15T06:54:31.732Z,19.27
2019-03-15T06:56:59.109Z,19.30
2019-03-15T06:59:26.364Z,19.32
2019-03-15T07:01:53.599Z,19.35
2019-03-15T07:04:20.827Z,19.37
2019-03-15T07:06:48.041Z,19.41
2019-03-15T07:09:15.219Z,19.41
2019-03-15T07:11:42.427Z,19.40
2019-03-15T07:14:09.656Z,19.39
2019-03-15T07:16:38.245Z,19.33
2019-03-15T07:19:05.723Z,19.34
2019-03-15T07:21:32.912Z,19.35
2019-03-15T07:24:00.115Z,19.30
2019-03-15T07:26:27.392Z,19.27
2019-03-15T07:28:54.717Z,19.26
2019-03-15T07:31:21.918Z,19.28
2019-03-15T07:33:49.731Z,19.29
2019-03-15T07:36:17.180Z,19.30
2019-03-15T07:38:44.377Z,19.30
2019-03-15T07:41:12.154Z,19.33
2019-03-15T07:43:39.527Z,19.36
2019-03-15T07:46:06.753Z,19.38
2019-03-15T07:48:34.361Z,19.40
2019-03-15T07:51:01.617Z,19.40
2019-03-15T07:53:28.809Z,19.40
2019-03-15T07:55:56.066Z,19.42
2019-03-15T07:58:23.259Z,19.45
2019-03-15T08:00:50.429Z,19.45
2019-03-15T08:03:17.648Z,19.46
2019-03-15T08:05:44.830Z,19.50
2019-03-15T08:08:12.050Z,19.53
2019-03-15T08:10:39.373Z,19.53
2019-03-15T08:13:06.582Z,19.55
2019-03-15T08:15:33.931Z,19.57
2019-03-15T08:18:01.428Z,19.54
2019-03-15T08:20:28.603Z,19.53
2019-03-15T08:22:55.826Z,19.57
2019-03-15T08:25:23.086Z,19.52
2019-03-15T08:27:50.313Z,19.56
2019-03-15T08:30:17.543Z,19.58
2019-03-15T08:32:44.944Z,19.60
2019-03-15T08:35:12.108Z,19.55
2019-03-15T08:37:39.263Z,19.56
2019-03-15T08:40:07.402Z,19.59
2019-03-15T08:42:34.935Z,19.57
2019-03-15T08:45:02.322Z,19.57
2019-03-15T08:47:29.498Z,19.58
2019-03-15T08:49:56.770Z,19.57
2019-03-15T08:52:23.979Z,19.55
2019-03-15T08:55:04.217Z,19.55
2019-03-15T08:57:20.305Z,19.54
2019-03-15T08:59:55.545Z,19.55
2019-03-15T09:02:16.714Z,19.57
2019-03-15T09:04:44.022Z,19.61
2019-03-15T09:07:11.234Z,19.61
2019-03-15T09:09:38.615Z,19.60
2019-03-15T09:12:05.847Z,19.64
2019-03-15T09:14:33.056Z,19.64
2019-03-15T09:17:00.278Z,19.65
2019-03-15T09:19:27.457Z,19.65
2019-03-15T09:21:54.677Z,19.67
2019-03-15T09:24:21.856Z,19.69
2019-03-15T09:26:49.063Z,19.68
2019-03-15T09:29:16.257Z,19.69
2019-03-15T09:31:47.950Z,19.63
2019-03-15T09:34:12.829Z,19.71
2019-03-15T09:36:49.931Z,19.73
2019-03-15T09:39:09.182Z,19.71
2019-03-15T09:41:39.907Z,19.76
2019-03-15T09:44:05.499Z,19.75
2019-03-15T09:46:32.691Z,19.75
2019-03-15T09:49:00.024Z,19.73
2019-03-15T09:51:27.263Z,19.76
2019-03-15T09:53:54.438Z,19.77
2019-03-15T09:56:21.658Z,19.79
2019-03-15T09:58:48.878Z,19.78
2019-03-15T10:01:33.627Z,19.74
2019-03-15T10:03:45.221Z,19.71
2019-03-15T10:06:16.599Z,19.68
2019-03-15T10:08:41.515Z,19.67
2019-03-15T10:11:08.770Z,19.68
2019-03-15T10:13:36.045Z,19.70
2019-03-15T10:16:03.245Z,19.65
2019-03-15T10:18:30.495Z,19.64
2019-03-15T10:20:57.690Z,19.66
2019-03-15T10:23:24.974Z,19.67
2019-03-15T10:25:52.159Z,19.63
2019-03-15T10:28:19.392Z,19.61
2019-03-15T10:30:46.603Z,19.62
2019-03-15T10:33:13.786Z,19.64
2019-03-15T10:35:41.030Z,19.67
2019-03-15T10:38:08.222Z,19.68
2019-03-15T10:40:35.519Z,19.68
2019-03-15T10:43:02.854Z,19.68
2019-03-15T10:45:30.006Z,19.70
2019-03-15T10:47:57.163Z,19.73
2019-03-15T10:50:24.424Z,19.76
2019-03-15T10:52:53.835Z,19.74
2019-03-15T10:55:21.006Z,19.71
2019-03-15T10:57:48.238Z,19.72
2019-03-15T11:00:15.583Z,19.74
2019-03-15T11:02:42.775Z,19.73
2019-03-15T11:05:10.108Z,19.71
2019-03-15T11:07:37.414Z,19.68
2019-03-15T11:10:10.985Z,19.65
2019-03-15T11:12:38.519Z,19.61
2019-03-15T11:15:06.598Z,19.58
2019-03-15T11:17:33.837Z,19.59
2019-03-15T11:20:01.069Z,19.57
2019-03-15T11:22:28.331Z,19.58
2019-03-15T11:24:55.934Z,19.56
2019-03-15T11:27:23.240Z,19.54
2019-03-15T11:29:50.499Z,19.54
2019-03-15T11:32:17.767Z,19.54
2019-03-15T11:34:44.988Z,19.55
2019-03-15T11:37:12.387Z,19.56
2019-03-15T11:39:39.659Z,19.53
2019-03-15T11:42:06.906Z,19.49
2019-03-15T11:44:34.146Z,19.49
2019-03-15T11:47:01.532Z,19.47
2019-03-15T11:49:28.823Z,19.48
2019-03-15T11:51:56.100Z,19.48
2019-03-15T11:54:23.396Z,19.49
2019-03-15T11:56:51.008Z,19.52
2019-03-15T11:59:18.439Z,19.52
2019-03-15T12:01:45.697Z,19.51
2019-03-15T12:04:12.878Z,19.51
2019-03-15T12:06:40.107Z,19.49
2019-03-15T12:09:07.951Z,19.48
2019-03-15T12:11:36.392Z,19.47
2019-03-15T12:14:03.653Z,19.46
2019-03-15T12:16:30.915Z,19.47
2019-03-15T12:18:58.209Z,19.48
2019-03-15T12:21:25.440Z,19.47
2019-03-15T12:23:52.650Z,19.42
2019-03-15T12:26:40.613Z,19.36
2019-03-15T12:29:06.297Z,19.35
2019-03-15T12:31:34.739Z,19.32
2019-03-15T12:34:01.978Z,19.29
2019-03-15T12:36:29.380Z,19.26
2019-03-15T12:38:58.440Z,19.26
2019-03-15T12:41:25.693Z,19.24
2019-03-15T12:43:53.045Z,19.24
2019-03-15T12:46:20.275Z,19.23
2019-03-15T12:48:49.010Z,19.22
2019-03-15T12:51:16.366Z,19.23
2019-03-15T12:53:44.993Z,19.29
2019-03-15T12:56:12.260Z,19.35
2019-03-15T12:58:39.456Z,19.40
2019-03-15T13:01:06.652Z,19.40
2019-03-15T13:03:33.923Z,19.46
2019-03-15T13:06:01.227Z,19.58
2019-03-15T13:08:28.511Z,19.61
2019-03-15T13:10:55.737Z,19.74
2019-03-15T13:13:22.992Z,19.82
2019-03-15T13:15:50.175Z,19.81
2019-03-15T13:18:17.359Z,19.81
2019-03-15T13:20:44.558Z,19.78
2019-03-15T13:23:11.844Z,19.77
2019-03-15T13:25:38.974Z,19.77
2019-03-15T13:28:06.225Z,19.75
2019-03-15T13:30:33.420Z,19.76
2019-03-15T13:33:00.655Z,19.79
2019-03-15T13:35:27.831Z,19.82
2019-03-15T13:37:55.171Z,19.83
2019-03-15T13:40:22.394Z,19.89
2019-03-15T13:42:49.612Z,19.90
2019-03-15T13:45:16.791Z,19.86
2019-03-15T13:47:44.012Z,19.81
2019-03-15T13:50:11.356Z,19.81
2019-03-15T13:52:38.523Z,19.90
2019-03-15T13:55:05.882Z,19.85
2019-03-15T13:57:33.062Z,19.78
2019-03-15T14:00:00.416Z,19.77
2019-03-15T14:02:27.600Z,19.85
2019-03-15T14:04:54.796Z,19.90
2019-03-15T14:07:22.003Z,19.95
2019-03-15T14:09:49.222Z,19.98
2019-03-15T14:12:16.521Z,20.06
2019-03-15T14:14:43.882Z,20.26
2019-03-15T14:17:11.091Z,20.58
2019-03-15T14:19:38.310Z,20.72
2019-03-15T14:22:06.330Z,21.10
2019-03-15T14:24:33.831Z,21.13
2019-03-15T14:27:01.024Z,21.13
2019-03-15T14:29:28.238Z,21.11
2019-03-15T14:31:55.497Z,20.91
2019-03-15T14:34:22.707Z,21.45
2019-03-15T14:36:50.103Z,21.41
2019-03-15T14:39:17.606Z,21.33
2019-03-15T14:41:44.772Z,21.65
2019-03-15T14:44:12.237Z,21.67
2019-03-15T14:46:39.478Z,21.31
2019-03-15T14:49:06.663Z,21.99
2019-03-15T14:51:33.971Z,22.08
2019-03-15T14:54:01.148Z,21.82
2019-03-15T14:56:28.349Z,21.53
2019-03-15T14:58:55.585Z,21.16
2019-03-15T15:01:22.814Z,20.89
2019-03-15T15:03:50.047Z,20.89
2019-03-15T15:06:17.251Z,20.88
2019-03-15T15:08:44.431Z,21.20
2019-03-15T15:11:11.662Z,21.21
2019-03-15T15:13:38.833Z,21.28
2019-03-15T15:16:06.031Z,21.42
2019-03-15T15:18:33.252Z,21.32
2019-03-15T15:21:00.472Z,21.43
2019-03-15T15:23:27.680Z,21.40
2019-03-15T15:25:54.892Z,21.13
2019-03-15T15:28:22.086Z,21.12
2019-03-15T15:30:49.318Z,21.10
2019-03-15T15:33:16.510Z,20.95
2019-03-15T15:35:50.941Z,21.04
2019-03-15T15:38:18.162Z,20.99
2019-03-15T15:40:45.453Z,20.97
2019-03-15T15:43:12.700Z,20.91
2019-03-15T15:45:39.845Z,20.89
2019-03-15T15:48:07.046Z,20.82
2019-03-15T15:50:34.275Z,20.71
2019-03-15T15:53:01.429Z,20.57
2019-03-15T15:55:28.643Z,20.50
2019-03-15T15:57:55.946Z,20.43
2019-03-15T16:00:23.169Z,20.34
2019-03-15T16:02:50.365Z,20.28
2019-03-15T16:05:17.599Z,20.25
2019-03-15T16:07:44.761Z,20.25
2019-03-15T16:10:11.999Z,20.24
2019-03-15T16:12:39.240Z,20.13
2019-03-15T16:15:07.013Z,20.03
2019-03-15T16:17:34.263Z,19.97
2019-03-15T16:20:01.422Z,19.94
2019-03-15T16:22:28.679Z,19.92
2019-03-15T16:24:55.836Z,19.90
2019-03-15T16:27:23.069Z,19.85
2019-03-15T16:29:50.292Z,19.80
2019-03-15T16:32:17.639Z,19.77
2019-03-15T16:34:44.799Z,19.74
2019-03-15T16:37:11.986Z,19.73
2019-03-15T16:39:39.207Z,19.74
2019-03-15T16:42:06.389Z,19.72
2019-03-15T16:44:33.638Z,19.70
2019-03-15T16:47:00.800Z,19.72
2019-03-15T16:49:27.984Z,19.69
2019-03-15T16:51:55.193Z,19.64
2019-03-15T16:54:22.364Z,19.63
2019-03-15T16:56:49.539Z,19.57
2019-03-15T16:59:16.743Z,19.54
2019-03-15T17:01:43.938Z,19.47
2019-03-15T17:04:11.158Z,19.41
2019-03-15T17:06:38.395Z,19.38
2019-03-15T17:09:06.397Z,19.34
2019-03-15T17:11:33.634Z,19.33
2019-03-15T17:14:00.940Z,19.30
2019-03-15T17:16:28.176Z,19.26
2019-03-15T17:18:55.378Z,19.27
2019-03-15T17:21:22.744Z,19.26
2019-03-15T17:23:49.958Z,19.20
2019-03-15T17:26:17.105Z,19.19
2019-03-15T17:28:44.414Z,19.18
2019-03-15T17:31:13.503Z,19.11
2019-03-15T17:33:40.828Z,19.12
2019-03-15T17:36:08.045Z,19.11
2019-03-15T17:38:35.187Z,19.07
2019-03-15T17:41:02.418Z,19.06
2019-03-15T17:43:29.646Z,19.05
2019-03-15T17:45:56.855Z,19.02
2019-03-15T17:48:24.182Z,19.01
2019-03-15T17:50:51.371Z,19.01
2019-03-15T17:53:18.550Z,18.98
2019-03-15T17:55:45.977Z,18.97
2019-03-15T17:58:13.185Z,18.96
2019-03-15T18:00:42.460Z,18.96
2019-03-15T18:03:20.604Z,18.93
2019-03-15T18:05:38.822Z,18.91
2019-03-15T18:08:06.017Z,18.88
2019-03-15T18:10:33.272Z,18.88
2019-03-15T18:13:00.526Z,18.86
2019-03-15T18:15:27.708Z,18.83
2019-03-15T18:17:54.914Z,18.82
2019-03-15T18:20:22.124Z,18.82
2019-03-15T18:22:49.315Z,18.81
2019-03-15T18:25:16.483Z,18.79
2019-03-15T18:27:43.697Z,18.81
2019-03-15T18:30:11.074Z,18.82
2019-03-15T18:32:38.250Z,18.80
2019-03-15T18:35:05.469Z,18.84
2019-03-15T18:37:32.679Z,18.82
2019-03-15T18:39:59.970Z,18.83
2019-03-15T18:42:27.191Z,18.83
2019-03-15T18:44:54.465Z,18.79
2019-03-15T18:47:21.617Z,18.80
2019-03-15T18:49:48.833Z,18.79
2019-03-15T18:52:16.036Z,18.81
2019-03-15T18:54:43.279Z,18.81
2019-03-15T18:57:10.466Z,18.83
2019-03-15T18:59:40.128Z,18.84
2019-03-15T19:02:06.930Z,18.84
2019-03-15T19:04:34.138Z,18.81
2019-03-15T19:07:01.336Z,18.81
2019-03-15T19:09:28.513Z,18.82
2019-03-15T19:11:55.742Z,18.80
2019-03-15T19:14:22.949Z,18.79
2019-03-15T19:16:50.167Z,18.80
2019-03-15T19:19:17.362Z,18.79
2019-03-15T19:21:44.585Z,18.77
2019-03-15T19:24:11.808Z,18.76
2019-03-15T19:26:39.126Z,18.73
2019-03-15T19:29:06.293Z,18.72
2019-03-15T19:31:33.498Z,18.71
2019-03-15T19:34:00.727Z,18.71
2019-03-15T19:36:27.897Z,18.72
2019-03-15T19:38:55.166Z,18.75
2019-03-15T19:41:22.383Z,18.76
2019-03-15T19:43:49.603Z,18.73
2019-03-15T19:46:16.791Z,18.71
2019-03-15T19:48:44.038Z,18.70
2019-03-15T19:51:11.234Z,18.70
2019-03-15T19:53:38.458Z,18.73
2019-03-15T19:56:05.716Z,18.75
2019-03-15T19:58:32.914Z,18.74
2019-03-15T20:01:00.117Z,18.75
2019-03-15T20:03:27.388Z,18.75
2019-03-15T20:05:54.590Z,18.74
2019-03-15T20:08:21.747Z,18.73
2019-03-15T20:10:48.950Z,18.74
2019-03-15T20:13:16.158Z,18.74
2019-03-15T20:15:43.362Z,18.71
2019-03-15T20:18:10.575Z,18.75
2019-03-15T20:20:37.748Z,18.74
2019-03-15T20:23:04.956Z,18.73
2019-03-15T20:25:32.172Z,18.71
2019-03-15T20:27:59.350Z,18.68
2019-03-15T20:30:27.155Z,18.69
2019-03-15T20:32:54.620Z,18.70
2019-03-15T20:35:21.817Z,18.69
2019-03-15T20:37:49.016Z,18.65
2019-03-15T20:40:16.245Z,18.64
2019-03-15T20:42:43.441Z,18.63
2019-03-15T20:45:11.883Z,18.62
2019-03-15T20:47:39.081Z,18.63
2019-03-15T20:50:06.963Z,18.61
2019-03-15T20:52:34.176Z,18.61
2019-03-15T20:55:01.414Z,18.60
2019-03-15T20:57:28.679Z,18.58
2019-03-15T20:59:55.912Z,18.58
2019-03-15T21:02:23.071Z,18.59
2019-03-15T21:04:50.292Z,18.58
2019-03-15T21:07:17.512Z,18.59
2019-03-15T21:09:44.725Z,18.55
2019-03-15T21:12:11.991Z,18.54
2019-03-15T21:14:39.235Z,18.54
2019-03-15T21:17:06.423Z,18.53
2019-03-15T21:19:33.696Z,18.54
2019-03-15T21:22:00.922Z,18.52
2019-03-15T21:24:28.116Z,18.53
2019-03-15T21:26:55.266Z,18.55
2019-03-15T21:29:22.491Z,18.55
2019-03-15T21:31:49.690Z,18.55
2019-03-15T21:34:16.928Z,18.55
2019-03-15T21:36:44.147Z,18.51
2019-03-15T21:39:11.395Z,18.50
2019-03-15T21:41:38.687Z,18.49
2019-03-15T21:44:05.937Z,18.48
2019-03-15T21:46:33.190Z,18.47
2019-03-15T21:49:00.441Z,18.43
2019-03-15T21:51:27.639Z,18.46
2019-03-15T21:53:54.870Z,18.48
2019-03-15T21:56:22.120Z,18.48
2019-03-15T21:58:49.332Z,18.48
2019-03-15T22:01:16.584Z,18.49
2019-03-15T22:03:43.760Z,18.51
2019-03-15T22:06:11.032Z,18.48
2019-03-15T22:08:38.252Z,18.47
2019-03-15T22:11:05.414Z,18.44
2019-03-15T22:13:32.815Z,18.43
2019-03-15T22:15:59.991Z,18.42
2019-03-15T22:18:27.186Z,18.43
2019-03-15T22:20:54.387Z,18.45
2019-03-15T22:23:21.591Z,18.45
2019-03-15T22:25:48.820Z,18.44
2019-03-15T22:28:16.015Z,18.42
2019-03-15T22:30:43.246Z,18.48
2019-03-15T22:33:10.565Z,18.49
2019-03-15T22:35:37.745Z,18.50
2019-03-15T22:38:04.900Z,18.51
2019-03-15T22:40:32.192Z,18.44
2019-03-15T22:42:59.442Z,18.43
2019-03-15T22:45:26.646Z,18.41
2019-03-15T22:47:53.830Z,18.40
2019-03-15T22:50:21.039Z,18.41
2019-03-15T22:52:48.272Z,18.40
2019-03-15T22:55:15.506Z,18.41
2019-03-15T22:57:42.762Z,18.43
2019-03-15T23:00:11.622Z,18.42
2019-03-15T23:02:39.007Z,18.41
2019-03-15T23:05:06.298Z,18.42
2019-03-15T23:07:33.533Z,18.41
2019-03-15T23:10:00.758Z,18.35
2019-03-15T23:12:27.939Z,18.35
2019-03-15T23:14:55.253Z,18.38
2019-03-15T23:17:22.463Z,18.34
2019-03-15T23:19:49.733Z,18.36
2019-03-15T23:22:16.941Z,18.39
2019-03-15T23:24:44.132Z,18.37
2019-03-15T23:27:11.579Z,18.38
2019-03-15T23:29:38.915Z,18.35
2019-03-15T23:32:06.117Z,18.35
2019-03-15T23:34:33.366Z,18.33
2019-03-15T23:37:00.562Z,18.36
2019-03-15T23:39:27.803Z,18.35
2019-03-15T23:41:55.483Z,18.36
2019-03-15T23:44:22.763Z,18.40
2019-03-15T23:46:49.976Z,18.40
2019-03-15T23:49:17.207Z,18.39
2019-03-15T23:51:44.474Z,18.38
2019-03-15T23:54:11.705Z,18.38
2019-03-15T23:56:38.900Z,18.40
2019-03-15T23:59:06.067Z,18.38
